Time;durP1;ratioP1;P1;durP2;ratioP2;P2;SDS_P1;SDS_P2;PMS_P1;PMS_P2;Temp;Humidity;BMP_temperature;BMP_pressure;BME280_temperature;BME280_humidity;BME280_pressure;Samples;Min_cycle;Max_cycle;Signal;HPM_P1;HPM_P2
2021/10/19 00:00:13;;;;;;;0.40;0.40;;;;;;;3.32;79.56;99520.28;4822332;29;20114;-75
2021/10/19 00:02:40;;;;;;;0.57;0.57;;;;;;;3.31;80.10;99524.59;4838103;29;20525;-75
2021/10/19 00:05:06;;;;;;;0.43;0.43;;;;;;;3.29;79.90;99520.38;4838494;29;20072;-75
2021/10/19 00:07:32;;;;;;;0.70;0.70;;;;;;;3.33;79.99;99522.81;4821994;29;20085;-74
2021/10/19 00:09:58;;;;;;;0.50;0.50;;;;;;;3.33;79.69;99520.25;4822191;29;20092;-74
2021/10/19 00:12:24;;;;;;;0.65;0.65;;;;;;;3.37;80.17;99518.41;4839448;29;20136;-76
2021/10/19 00:14:50;;;;;;;0.77;0.77;;;;;;;3.35;79.86;99520.19;4839643;29;20161;-74
2021/10/19 00:17:16;;;;;;;0.50;0.50;;;;;;;3.30;80.20;99509.19;4838404;29;20528;-76
2021/10/19 00:19:42;;;;;;;0.80;0.80;;;;;;;3.40;79.78;99520.91;4838140;29;20057;-75
2021/10/19 00:22:08;;;;;;;0.70;0.70;;;;;;;3.36;79.60;99516.72;4838319;29;20054;-76
2021/10/19 00:24:34;;;;;;;0.50;0.50;;;;;;;3.46;79.47;99521.53;4838167;29;20058;-75
2021/10/19 00:27:02;;;;;;;0.68;0.68;;;;;;;3.47;79.82;99535.25;4838205;29;20061;-75
2021/10/19 00:29:28;;;;;;;0.70;0.70;;;;;;;3.45;79.51;99534.47;4838112;29;20057;-75
2021/10/19 00:31:54;;;;;;;0.50;0.50;;;;;;;3.45;79.99;99530.16;4839662;29;20042;-75
2021/10/19 00:34:20;;;;;;;0.75;0.75;;;;;;;3.49;79.55;99534.34;4841832;29;20057;-75
2021/10/19 00:36:46;;;;;;;2.92;0.73;;;;;;;3.47;79.75;99535.25;4841298;29;20136;-75
2021/10/19 00:39:12;;;;;;;0.50;0.50;;;;;;;3.48;79.47;99527.50;4825288;29;20141;-77
2021/10/19 00:41:38;;;;;;;0.30;0.30;;;;;;;3.49;79.93;99533.50;4824560;29;20550;-76
2021/10/19 00:44:04;;;;;;;0.40;0.40;;;;;;;3.50;80.18;99533.44;4841723;29;20054;-75
2021/10/19 00:46:30;;;;;;;0.45;0.45;;;;;;;3.47;79.78;99527.53;4824936;29;20509;-76
2021/10/19 00:48:56;;;;;;;0.70;0.70;;;;;;;3.50;79.76;99530.84;4825587;29;20069;-76
2021/10/19 00:51:22;;;;;;;0.60;0.60;;;;;;;3.55;79.64;99533.31;4833250;29;20629;-75
2021/10/19 00:53:48;;;;;;;0.47;0.47;;;;;;;3.53;79.64;99517.03;4843119;29;20097;-75
2021/10/19 00:56:14;;;;;;;0.40;0.40;;;;;;;3.60;79.71;99534.84;4855644;29;20057;-76
2021/10/19 00:58:40;;;;;;;1.35;0.90;;;;;;;3.54;79.86;99521.28;4864675;29;20056;-74
2021/10/19 01:01:06;;;;;;;1.00;1.00;;;;;;;3.58;79.65;99530.63;4827840;29;20065;-75
2021/10/19 01:03:33;;;;;;;0.50;0.50;;;;;;;3.59;79.18;99529.75;4843104;29;20057;-74
2021/10/19 01:06:01;;;;;;;0.40;0.40;;;;;;;3.60;79.65;99531.41;4843145;29;20084;-75
2021/10/19 01:08:29;;;;;;;0.45;0.45;;;;;;;3.66;79.69;99529.47;4859386;29;20053;-76
2021/10/19 01:10:55;;;;;;;0.50;0.50;;;;;;;3.67;78.96;99530.31;4842491;29;20141;-75
2021/10/19 01:13:22;;;;;;;0.75;0.75;;;;;;;3.67;79.37;99540.66;4859199;29;20055;-77
2021/10/19 01:15:48;;;;;;;0.35;0.35;;;;;;;3.66;79.33;99534.63;4842521;29;20148;-75
2021/10/19 01:18:17;;;;;;;0.80;0.80;;;;;;;3.67;79.04;99538.06;4859130;29;20053;-75
2021/10/19 01:20:43;;;;;;;0.50;0.50;;;;;;;3.66;78.68;99528.66;4842606;29;20578;-74
2021/10/19 01:23:10;;;;;;;0.60;0.60;;;;;;;3.69;79.39;99541.47;4842619;29;20392;-75
2021/10/19 01:25:36;;;;;;;0.50;0.50;;;;;;;3.70;79.00;99545.72;4857658;29;20487;-75
2021/10/19 01:28:08;;;;;;;0.50;0.50;;;;;;;3.71;79.30;99539.66;4858824;29;20571;-75
2021/10/19 01:30:42;;;;;;;0.68;0.68;;;;;;;3.73;78.70;99540.44;4842139;29;20053;-75
2021/10/19 01:33:08;;;;;;;10.32;0.82;;;;;;;3.79;79.07;99554.91;4858770;29;20089;-75
2021/10/19 01:35:38;;;;;;;1.20;1.20;;;;;;;3.75;78.79;99549.00;4858652;29;20110;-76
2021/10/19 01:38:06;;;;;;;0.60;0.60;;;;;;;3.73;78.83;99550.78;4858837;29;20723;-74
2021/10/19 01:40:32;;;;;;;0.40;0.40;;;;;;;3.71;78.70;99542.25;4858527;29;20060;-75
2021/10/19 01:42:58;;;;;;;0.55;0.55;;;;;;;3.72;78.95;99551.69;4857893;29;20054;-75
2021/10/19 01:45:24;;;;;;;0.80;0.80;;;;;;;3.74;79.28;99557.63;4858966;29;20061;-74
2021/10/19 01:47:50;;;;;;;0.70;0.70;;;;;;;3.71;79.16;99550.00;4858505;29;20595;-75
2021/10/19 01:50:17;;;;;;;0.60;0.60;;;;;;;3.73;79.20;99549.94;4842187;29;20082;-74
2021/10/19 01:52:43;;;;;;;0.63;0.63;;;;;;;3.71;79.11;99551.72;4841877;29;20121;-74
2021/10/19 01:55:09;;;;;;;0.57;0.57;;;;;;;3.71;79.53;99562.91;4841837;29;20081;-76
2021/10/19 01:57:35;;;;;;;0.75;0.75;;;;;;;3.74;79.58;99557.63;4811442;29;20109;-76
2021/10/19 02:00:04;;;;;;;0.68;0.68;;;;;;;3.73;79.67;99568.84;4840501;29;20068;-75
2021/10/19 02:02:38;;;;;;;0.40;0.40;;;;;;;3.75;79.89;99567.06;4858139;29;20465;-74
2021/10/19 02:05:04;;;;;;;0.50;0.50;;;;;;;3.71;79.84;99573.22;4841821;29;20089;-75
2021/10/19 02:07:30;;;;;;;0.82;0.82;;;;;;;3.72;79.92;99572.34;4858177;29;20469;-75
2021/10/19 02:09:56;;;;;;;0.60;0.60;;;;;;;3.74;79.42;99570.53;4858053;29;20501;-74
2021/10/19 02:12:22;;;;;;;0.40;0.40;;;;;;;3.74;79.88;99577.44;4858125;29;20057;-75
2021/10/19 02:14:48;;;;;;;1.30;1.30;;;;;;;3.70;80.55;99576.69;4841575;29;20057;-76
2021/10/19 02:17:14;;;;;;;0.50;0.50;;;;;;;3.68;79.92;99587.06;4858082;29;20144;-73
2021/10/19 02:19:40;;;;;;;0.45;0.45;;;;;;;3.68;79.87;99575.91;4841280;29;20059;-75
2021/10/19 02:22:06;;;;;;;0.80;0.80;;;;;;;3.71;79.75;99580.13;4826183;29;20053;-75
2021/10/19 02:24:32;;;;;;;0.60;0.60;;;;;;;3.70;78.68;99581.84;4858141;29;20077;-74
2021/10/19 02:26:58;;;;;;;0.65;0.65;;;;;;;3.68;79.75;99578.47;4857788;29;20141;-75
2021/10/19 02:29:25;;;;;;;0.63;0.63;;;;;;;3.67;79.46;99574.19;4857866;29;20045;-75
2021/10/19 02:31:51;;;;;;;4.47;0.98;;;;;;;3.64;79.12;99576.88;4857930;29;20450;-75
2021/10/19 02:34:17;;;;;;;0.50;0.50;;;;;;;3.59;79.00;99594.25;4860262;29;20090;-76
2021/10/19 02:36:43;;;;;;;0.73;0.73;;;;;;;3.55;79.04;99592.66;4857463;29;20057;-77
2021/10/19 02:39:09;;;;;;;0.70;0.70;;;;;;;3.49;79.31;99593.69;4841236;29;20464;-79
2021/10/19 02:41:36;;;;;;;0.55;0.55;;;;;;;3.46;80.13;99604.13;4825989;29;20065;-79
2021/10/19 02:44:02;;;;;;;0.60;0.60;;;;;;;3.36;80.20;99597.53;4841122;29;20524;-76
2021/10/19 02:46:31;;;;;;;1.00;1.00;;;;;;;3.37;79.40;99598.38;4857511;29;20054;-76
2021/10/19 02:48:57;;;;;;;0.50;0.50;;;;;;;3.32;79.57;99589.91;4841431;29;20054;-76
2021/10/19 02:51:23;;;;;;;0.70;0.70;;;;;;;3.36;80.40;99607.84;4857486;29;20049;-75
2021/10/19 02:53:49;;;;;;;0.50;0.50;;;;;;;3.36;80.33;99612.16;4840568;29;20114;-76
2021/10/19 02:56:15;;;;;;;0.73;0.70;;;;;;;3.34;81.47;99603.63;4840984;29;20508;-77
2021/10/19 02:58:41;;;;;;;0.52;0.52;;;;;;;3.32;81.72;99600.25;4846831;29;20050;-77
2021/10/19 03:01:07;;;;;;;0.60;0.60;;;;;;;3.36;81.50;99613.00;4845925;29;20072;-77
2021/10/19 03:03:33;;;;;;;0.80;0.80;;;;;;;3.32;81.92;99589.91;4857181;29;20050;-77
2021/10/19 03:05:59;;;;;;;0.90;0.90;;;;;;;3.38;81.38;99612.94;4857243;29;20057;-76
2021/10/19 03:08:25;;;;;;;0.45;0.45;;;;;;;3.37;81.68;99609.53;4857153;29;20056;-76
2021/10/19 03:10:51;;;;;;;0.70;0.70;;;;;;;3.35;80.90;99615.63;4857171;29;20429;-78
2021/10/19 03:13:17;;;;;;;0.60;0.60;;;;;;;3.35;80.96;99611.31;4857220;29;20117;-77
2021/10/19 03:15:43;;;;;;;0.80;0.80;;;;;;;3.38;81.24;99610.38;4840548;29;20050;-76
2021/10/19 03:18:09;;;;;;;0.50;0.50;;;;;;;3.35;80.94;99611.31;4857304;29;20419;-77
2021/10/19 03:20:35;;;;;;;0.80;0.80;;;;;;;3.37;80.77;99614.69;4839646;29;20057;-77
2021/10/19 03:23:01;;;;;;;0.50;0.50;;;;;;;3.36;81.36;99613.00;4857133;29;20141;-77
2021/10/19 03:25:27;;;;;;;0.40;0.40;;;;;;;3.38;80.94;99623.28;4840791;29;20144;-76
2021/10/19 03:27:53;;;;;;;0.50;0.50;;;;;;;3.38;81.12;99620.69;4856887;29;20132;-77
2021/10/19 03:30:19;;;;;;;0.60;0.60;;;;;;;3.41;81.19;99626.59;4857221;29;20132;-76
2021/10/19 03:32:45;;;;;;;1.05;1.05;;;;;;;3.45;80.25;99622.19;4840424;29;20591;-77
2021/10/19 03:35:11;;;;;;;0.40;0.40;;;;;;;3.47;79.53;99628.16;4857150;29;20476;-77
2021/10/19 03:37:37;;;;;;;0.55;0.55;;;;;;;3.47;79.72;99616.09;4825281;29;20045;-76
2021/10/19 03:40:04;;;;;;;0.75;0.75;;;;;;;3.45;79.52;99629.94;4810159;29;20442;-76
2021/10/19 03:42:30;;;;;;;0.70;0.70;;;;;;;3.47;79.00;99623.00;4857871;29;20054;-76
2021/10/19 03:44:56;;;;;;;0.70;0.70;;;;;;;3.50;77.88;99626.31;4860063;29;20057;-74
2021/10/19 03:47:22;;;;;;;0.95;0.95;;;;;;;3.48;78.11;99624.69;4840821;29;20560;-76
2021/10/19 03:49:48;;;;;;;0.60;0.60;;;;;;;3.49;78.53;99634.13;4857293;29;20088;-77
2021/10/19 03:52:14;;;;;;;0.50;0.50;;;;;;;3.52;76.94;99639.19;4822294;29;20580;-77
2021/10/19 03:54:40;;;;;;;0.60;0.60;;;;;;;3.46;76.28;99611.00;4826118;29;20058;-75
2021/10/19 03:57:07;;;;;;;0.60;0.60;;;;;;;3.49;75.85;99629.81;4804025;29;20058;-75
2021/10/19 03:59:34;;;;;;;0.50;0.50;;;;;;;3.50;75.85;99628.09;4804351;29;20060;-76
2021/10/19 04:02:00;;;;;;;0.60;0.60;;;;;;;3.56;75.34;99633.06;4814164;29;20109;-75
2021/10/19 04:04:27;;;;;;;0.47;0.47;;;;;;;3.60;74.17;99642.38;4838445;29;20064;-77
2021/10/19 04:06:54;;;;;;;0.60;0.60;;;;;;;3.64;71.28;99634.50;4839574;29;20054;-75
2021/10/19 04:09:19;;;;;;;0.50;0.50;;;;;;;3.62;70.80;99636.31;4842117;29;20106;-77
2021/10/19 04:11:46;;;;;;;0.50;0.50;;;;;;;3.63;71.37;99639.72;4840588;29;20050;-77
2021/10/19 04:14:12;;;;;;;0.75;0.75;;;;;;;3.60;70.48;99647.53;4841900;29;20516;-76
2021/10/19 04:16:38;;;;;;;0.45;0.45;;;;;;;3.60;71.21;99650.97;4791247;29;20533;-77
2021/10/19 04:19:04;;;;;;;1.65;1.10;;;;;;;3.58;71.58;99655.34;4823973;29;20062;-75
2021/10/19 04:21:30;;;;;;;0.70;0.70;;;;;;;3.57;71.26;99658.81;4809367;29;20050;-74
2021/10/19 04:23:57;;;;;;;2.72;1.67;;;;;;;3.58;71.76;99657.06;4837994;29;20053;-77
2021/10/19 04:26:23;;;;;;;0.68;0.60;;;;;;;3.58;72.38;99659.66;4843481;29;20137;-81
2021/10/19 04:28:49;;;;;;;0.65;0.65;;;;;;;3.57;73.00;99668.28;4860859;29;20038;-77
2021/10/19 04:31:16;;;;;;;0.95;0.95;;;;;;;3.49;72.15;99658.19;4840389;29;20140;-78
2021/10/19 04:33:42;;;;;;;0.85;0.85;;;;;;;3.51;71.92;99655.56;4840358;29;20058;-79
2021/10/19 04:36:09;;;;;;;1.13;1.10;;;;;;;3.58;71.28;99668.25;4829233;29;20065;-77
2021/10/19 04:38:36;;;;;;;0.70;0.70;;;;;;;3.60;71.27;99663.88;4824393;29;20046;-77
2021/10/19 04:41:02;;;;;;;0.80;0.80;;;;;;;3.64;71.72;99677.53;4840842;29;20102;-77
2021/10/19 04:43:28;;;;;;;0.95;0.95;;;;;;;3.57;72.05;99679.44;4840883;29;20054;-78
2021/10/19 04:45:54;;;;;;;0.50;0.50;;;;;;;3.62;72.41;99681.91;4840781;29;20061;-77
2021/10/19 04:48:21;;;;;;;0.40;0.40;;;;;;;3.65;71.98;99672.34;4820405;29;20081;-77
2021/10/19 04:50:47;;;;;;;0.40;0.40;;;;;;;3.65;71.22;99676.66;4841453;29;20054;-76
2021/10/19 04:53:13;;;;;;;0.43;0.43;;;;;;;3.67;69.72;99669.69;4825019;29;20153;-77
2021/10/19 04:55:40;;;;;;;0.50;0.50;;;;;;;3.68;70.09;99694.63;4840940;29;20110;-77
2021/10/19 04:58:06;;;;;;;0.40;0.40;;;;;;;3.67;69.22;99680.03;4824425;29;20148;-77
2021/10/19 05:00:32;;;;;;;0.82;0.82;;;;;;;3.66;69.49;99683.50;4809606;29;20140;-77
2021/10/19 05:02:58;;;;;;;0.50;0.50;;;;;;;3.69;69.85;99686.00;4823988;29;20053;-77
2021/10/19 05:05:24;;;;;;;0.40;0.40;;;;;;;3.74;70.11;99694.44;4809427;29;20061;-77
2021/10/19 05:07:51;;;;;;;0.50;0.50;;;;;;;3.76;70.41;99694.41;4824780;29;20150;-78
2021/10/19 05:10:17;;;;;;;0.40;0.40;;;;;;;3.74;70.77;99698.75;4840180;29;20059;-77
2021/10/19 05:12:44;;;;;;;0.80;0.80;;;;;;;3.65;71.82;99689.56;4844936;29;20050;-77
2021/10/19 05:15:11;;;;;;;0.75;0.75;;;;;;;3.66;72.95;99688.69;4837943;29;20145;-76
2021/10/19 05:17:38;;;;;;;1.00;1.00;;;;;;;3.57;73.74;99694.94;4853165;29;20054;-78
2021/10/19 05:20:06;;;;;;;0.40;0.40;;;;;;;3.54;73.81;99689.88;4832633;29;20054;-78
2021/10/19 05:23:03;;;;;;;0.50;0.50;;;;;;;3.50;74.30;99695.19;4826486;29;20054;-76
2021/10/19 05:25:30;;;;;;;0.57;0.57;;;;;;;3.54;74.74;99704.50;4834198;29;20153;-76
2021/10/19 05:27:58;;;;;;;1.00;1.00;;;;;;;3.58;74.55;99703.53;4833191;29;20049;-75
2021/10/19 05:30:25;;;;;;;0.50;0.50;;;;;;;3.60;74.03;99710.31;4822166;29;20054;-75
2021/10/19 05:32:52;;;;;;;0.40;0.40;;;;;;;3.52;73.71;99701.97;4805569;29;20046;-75
2021/10/19 05:35:18;;;;;;;0.60;0.60;;;;;;;3.52;73.67;99720.03;4829671;29;20126;-75
2021/10/19 05:37:44;;;;;;;0.50;0.50;;;;;;;3.50;72.68;99708.91;4839430;29;20462;-76
2021/10/19 05:40:10;;;;;;;0.50;0.50;;;;;;;3.63;72.85;99717.16;4833130;29;20089;-75
2021/10/19 05:42:37;;;;;;;0.60;0.60;;;;;;;3.50;72.99;99720.97;4824888;29;20054;-76
2021/10/19 05:45:07;;;;;;;0.60;0.60;;;;;;;3.54;73.20;99722.56;4821778;29;20054;-74
2021/10/19 05:47:33;;;;;;;0.60;0.60;;;;;;;3.52;74.19;99729.50;4805724;29;20699;-76
2021/10/19 05:50:00;;;;;;;0.85;0.85;;;;;;;3.57;73.20;99723.31;4821750;29;20669;-76
2021/10/19 05:52:27;;;;;;;0.52;0.52;;;;;;;3.61;73.14;99736.97;4821855;29;20062;-77
2021/10/19 05:54:53;;;;;;;0.55;0.55;;;;;;;3.56;73.63;99733.69;4817733;29;20049;-77
2021/10/19 05:57:20;;;;;;;0.80;0.80;;;;;;;3.61;73.72;99740.41;4839956;29;20054;-77
2021/10/19 05:59:46;;;;;;;0.40;0.40;;;;;;;3.65;73.27;99734.28;4837296;29;20049;-75
2021/10/19 06:02:12;;;;;;;0.50;0.50;;;;;;;3.68;73.33;99735.94;4836923;29;20053;-75
2021/10/19 06:04:38;;;;;;;0.47;0.47;;;;;;;3.69;72.80;99750.53;4839709;29;20037;-75
2021/10/19 06:07:04;;;;;;;0.60;0.60;;;;;;;3.64;72.13;99744.63;4853719;29;20476;-74
2021/10/19 06:09:31;;;;;;;0.73;0.73;;;;;;;3.63;72.19;99741.22;4840471;29;20510;-76
2021/10/19 06:11:57;;;;;;;0.40;0.40;;;;;;;3.65;70.89;99757.50;4794029;29;20562;-77
2021/10/19 06:14:24;;;;;;;0.40;0.40;;;;;;;3.64;70.70;99755.81;4839729;29;20054;-76
2021/10/19 06:16:50;;;;;;;0.60;0.60;;;;;;;3.64;70.78;99748.06;4839296;29;20053;-78
2021/10/19 06:19:17;;;;;;;0.40;0.40;;;;;;;3.71;71.67;99759.06;4825177;29;20381;-77
2021/10/19 06:38:58;;;;;;;0.45;0.45;;;;;;;3.73;73.11;99767.59;4857788;29;20220;-78
2021/10/19 06:41:24;;;;;;;0.77;0.77;;;;;;;3.77;73.23;99764.03;4842424;29;20118;-76
2021/10/19 06:44:11;;;;;;;0.73;0.73;;;;;;;3.81;73.73;99773.41;4826139;29;20053;-76
2021/10/19 06:46:39;;;;;;;0.70;0.70;;;;;;;3.76;73.28;99757.22;4845193;29;20045;-76
2021/10/19 06:49:05;;;;;;;1.10;1.10;;;;;;;3.73;73.51;99770.19;4839772;29;20081;-76
2021/10/19 06:51:31;;;;;;;0.85;0.85;;;;;;;3.78;73.24;99760.59;4808369;29;20092;-76
2021/10/19 06:53:57;;;;;;;0.70;0.70;;;;;;;3.74;73.28;99774.47;4798726;29;20157;-76
2021/10/19 06:56:23;;;;;;;0.50;0.50;;;;;;;3.72;73.60;99771.09;4828247;29;20080;-77
2021/10/19 06:58:49;;;;;;;0.80;0.80;;;;;;;3.78;74.09;99770.06;4811148;29;20053;-77
2021/10/19 07:01:16;;;;;;;0.60;0.60;;;;;;;3.78;73.74;99770.06;4840823;29;20468;-76
2021/10/19 07:03:42;;;;;;;0.75;0.75;;;;;;;3.86;73.47;99771.53;4810913;29;20063;-76
2021/10/19 07:06:09;;;;;;;0.50;0.50;;;;;;;3.78;73.64;99770.91;4841105;29;20088;-76
2021/10/19 07:08:34;;;;;;;0.70;0.70;;;;;;;3.80;73.35;99768.28;4826000;29;20091;-76
2021/10/19 07:11:01;;;;;;;0.70;0.70;;;;;;;3.72;72.32;99755.59;4811094;29;20056;-76
2021/10/19 07:13:27;;;;;;;0.65;0.65;;;;;;;3.91;73.02;99777.41;4826508;29;20053;-75
2021/10/19 07:15:54;;;;;;;0.40;0.40;;;;;;;3.88;72.78;99777.50;4841133;29;20053;-75
2021/10/19 07:18:21;;;;;;;0.50;0.50;;;;;;;3.82;72.59;99767.34;4840936;29;20049;-75
2021/10/19 07:20:48;;;;;;;2.22;2.13;;;;;;;3.78;73.20;99777.81;4856219;29;20618;-77
2021/10/19 07:23:15;;;;;;;0.70;0.70;;;;;;;3.75;72.91;99781.31;4842642;29;20065;-76
2021/10/19 07:25:41;;;;;;;0.50;0.50;;;;;;;3.75;73.83;99785.63;4832804;29;20213;-74
2021/10/19 07:28:07;;;;;;;0.75;0.75;;;;;;;3.68;73.66;99784.97;4838491;29;20703;-75
2021/10/19 07:30:33;;;;;;;0.60;0.60;;;;;;;3.69;74.33;99786.66;4825613;29;20054;-78
2021/10/19 07:32:59;;;;;;;0.75;0.75;;;;;;;3.80;74.35;99782.03;4851707;29;20050;-78
2021/10/19 07:35:25;;;;;;;0.75;0.75;;;;;;;3.75;74.39;99785.63;4852660;29;20531;-78
2021/10/19 07:37:51;;;;;;;0.40;0.40;;;;;;;3.76;74.57;99785.63;4835541;29;20053;-77
2021/10/19 07:40:19;;;;;;;0.70;0.70;;;;;;;3.80;74.49;99781.19;4834304;29;20057;-77
2021/10/19 07:42:45;;;;;;;0.80;0.80;;;;;;;3.70;74.19;99775.44;4854384;29;20058;-77
2021/10/19 07:45:11;;;;;;;0.70;0.70;;;;;;;3.80;74.12;99789.78;4837398;29;20180;-77
2021/10/19 07:47:44;;;;;;;0.63;0.63;;;;;;;3.89;74.10;99793.84;4836280;29;20061;-76
2021/10/19 07:50:14;;;;;;;0.60;0.60;;;;;;;3.84;73.28;99790.53;4857547;29;20053;-77
2021/10/19 07:52:42;;;;;;;0.90;0.90;;;;;;;3.92;72.38;99792.03;4855231;29;20154;-79
2021/10/19 07:55:08;;;;;;;0.52;0.52;;;;;;;3.93;72.20;99785.94;4837576;29;20046;-78
2021/10/19 07:57:44;;;;;;;0.50;0.50;;;;;;;3.90;71.68;99791.19;4849638;29;20058;-77
2021/10/19 08:00:12;;;;;;;0.73;0.73;;;;;;;4.06;71.55;99787.28;4837005;29;20119;-78
2021/10/19 08:02:42;;;;;;;5.57;1.42;;;;;;;4.01;71.89;99796.91;4837232;29;20084;-79
2021/10/19 08:05:12;;;;;;;0.80;0.80;;;;;;;4.08;71.33;99795.84;4836476;29;20062;-79
2021/10/19 08:07:39;;;;;;;0.60;0.60;;;;;;;4.15;70.74;99797.38;4836520;29;20046;-77
2021/10/19 08:10:06;;;;;;;0.50;0.50;;;;;;;4.19;70.65;99788.59;4851446;29;20422;-77
2021/10/19 08:12:33;;;;;;;0.88;0.88;;;;;;;4.19;71.19;99803.25;4835022;29;20540;-78
2021/10/19 08:15:01;;;;;;;0.50;0.50;;;;;;;4.04;70.68;99807.16;4834418;29;20119;-77
2021/10/19 08:17:28;;;;;;;0.73;0.73;;;;;;;4.20;70.43;99804.97;4835935;29;20555;-79
2021/10/19 08:20:00;;;;;;;0.93;0.93;;;;;;;4.25;69.85;99799.66;4833613;29;20118;-78
2021/10/19 08:22:31;;;;;;;0.50;0.50;;;;;;;4.19;69.38;99808.41;4835747;29;20047;-78
2021/10/19 08:24:57;;;;;;;0.50;0.50;;;;;;;4.17;69.67;99811.06;4842075;29;20056;-78
2021/10/19 08:27:23;;;;;;;0.57;0.57;;;;;;;4.11;70.00;99808.66;4852669;29;20315;-78
2021/10/19 08:29:49;;;;;;;0.82;0.82;;;;;;;4.01;70.42;99811.56;4852544;29;20103;-78
2021/10/19 08:32:16;;;;;;;0.60;0.60;;;;;;;4.01;70.92;99819.31;4854980;29;20050;-77
2021/10/19 08:34:42;;;;;;;0.73;0.73;;;;;;;3.97;70.42;99818.53;4837069;29;20050;-76
2021/10/19 08:37:08;;;;;;;1.20;1.20;;;;;;;4.12;70.63;99822.44;4829256;29;20073;-77
2021/10/19 08:39:34;;;;;;;0.57;0.57;;;;;;;4.13;70.91;99819.78;4832181;29;20115;-73
2021/10/19 08:42:00;;;;;;;0.77;0.77;;;;;;;4.16;70.09;99827.44;4840000;29;20445;-73
2021/10/19 08:44:27;;;;;;;0.57;0.57;;;;;;;4.19;69.27;99817.03;4840523;29;20062;-72
2021/10/19 08:46:54;;;;;;;0.70;0.70;;;;;;;4.34;69.38;99822.63;4839998;29;20053;-72
2021/10/19 08:49:20;;;;;;;0.55;0.55;;;;;;;4.45;69.20;99826.56;4839249;29;20073;-73
2021/10/19 08:51:46;;;;;;;1.20;1.20;;;;;;;4.47;68.92;99818.78;4839449;29;20144;-73
2021/10/19 08:54:12;;;;;;;0.60;0.60;;;;;;;4.39;68.11;99823.31;4840599;29;20437;-73
2021/10/19 08:56:39;;;;;;;0.70;0.70;;;;;;;4.54;67.64;99826.31;4840467;29;20054;-73
2021/10/19 08:59:06;;;;;;;0.65;0.65;;;;;;;4.51;67.09;99828.16;4837349;29;20064;-73
2021/10/19 09:01:36;;;;;;;0.68;0.68;;;;;;;4.54;67.72;99813.41;4837526;29;20521;-72
2021/10/19 09:04:06;;;;;;;2.08;1.38;;;;;;;4.66;66.27;99820.75;4839368;29;20049;-73
2021/10/19 09:06:34;;;;;;;0.65;0.65;;;;;;;4.65;65.27;99823.38;4822240;29;20148;-74
2021/10/19 09:09:16;;;;;;;0.50;0.50;;;;;;;4.58;65.60;99827.06;4823501;29;20072;-74
2021/10/19 09:11:47;;;;;;;0.63;0.63;;;;;;;4.59;64.90;99826.16;4840129;29;20065;-75
2021/10/19 09:14:14;;;;;;;0.50;0.50;;;;;;;4.61;64.51;99826.97;4840199;29;20050;-75
2021/10/19 09:16:45;;;;;;;0.70;0.70;;;;;;;4.65;64.25;99837.16;4803084;29;20054;-74
2021/10/19 09:19:13;;;;;;;0.50;0.50;;;;;;;4.62;63.69;99838.97;4838871;29;20046;-74
2021/10/19 09:21:46;;;;;;;0.60;0.60;;;;;;;4.68;63.68;99838.78;4839084;29;20057;-74
2021/10/19 09:24:16;;;;;;;0.57;0.57;;;;;;;4.66;64.73;99838.00;4837214;29;20122;-72
2021/10/19 09:26:53;;;;;;;0.90;0.90;;;;;;;4.74;64.88;99836.03;4837477;29;20065;-73
2021/10/19 09:29:19;;;;;;;0.70;0.70;;;;;;;4.71;64.14;99836.13;4821670;29;20053;-72
2021/10/19 09:31:45;;;;;;;1.38;1.35;;;;;;;4.81;64.39;99847.03;4806872;29;20152;-73
2021/10/19 09:34:14;;;;;;;0.82;0.82;;;;;;;4.76;63.77;99829.06;4820730;29;20584;-73
2021/10/19 09:36:40;;;;;;;0.40;0.40;;;;;;;4.80;64.67;99851.34;4837208;29;20054;-74
2021/10/19 09:39:09;;;;;;;0.50;0.50;;;;;;;5.01;63.94;99852.38;4840273;29;20077;-74
2021/10/19 09:41:45;;;;;;;0.47;0.47;;;;;;;4.89;63.56;99848.47;4841260;29;20058;-73
2021/10/19 09:44:16;;;;;;;0.60;0.60;;;;;;;4.98;62.98;99853.34;4841645;29;20046;-75
2021/10/19 09:46:42;;;;;;;0.52;0.52;;;;;;;4.91;62.95;99846.66;4823864;29;20077;-74
2021/10/19 09:49:08;;;;;;;0.70;0.70;;;;;;;5.02;62.30;99844.59;4856234;29;20084;-74
2021/10/19 09:51:36;;;;;;;0.40;0.40;;;;;;;5.03;62.79;99842.84;4840682;29;20064;-73
2021/10/19 09:54:02;;;;;;;0.43;0.43;;;;;;;4.86;63.81;99847.72;4844400;29;20061;-73
2021/10/19 09:56:28;;;;;;;0.85;0.85;;;;;;;4.91;63.74;99857.00;4826919;29;20045;-73
2021/10/19 09:58:54;;;;;;;0.60;0.60;;;;;;;4.92;64.41;99855.28;4857918;29;20054;-73
2021/10/19 10:01:21;;;;;;;1.17;1.05;;;;;;;4.72;65.27;99855.91;4841983;29;20073;-73
2021/10/19 10:03:50;;;;;;;0.75;0.75;;;;;;;4.63;66.13;99857.03;4857766;29;20092;-74
2021/10/19 10:06:17;;;;;;;0.75;0.75;;;;;;;4.65;65.58;99867.31;4858488;29;20117;-74
2021/10/19 10:08:43;;;;;;;15.00;0.85;;;;;;;4.69;65.68;99871.50;4858356;29;20053;-73
2021/10/19 10:11:09;;;;;;;0.50;0.50;;;;;;;4.63;66.66;99863.94;4841583;29;20116;-73
2021/10/19 10:13:36;;;;;;;0.50;0.50;;;;;;;4.63;66.75;99871.72;4858371;29;20493;-74
2021/10/19 10:16:12;;;;;;;0.60;0.60;;;;;;;4.81;65.62;99863.38;4841242;29;20057;-73
2021/10/19 10:18:38;;;;;;;0.43;0.43;;;;;;;4.85;64.97;99857.22;4841559;29;20061;-73
2021/10/19 10:21:22;;;;;;;0.60;0.60;;;;;;;4.90;64.29;99865.69;4841194;29;20057;-74
2021/10/19 10:24:02;;;;;;;0.40;0.40;;;;;;;5.03;63.47;99861.81;4858044;29;20055;-74
2021/10/19 10:26:30;;;;;;;0.40;0.40;;;;;;;4.83;64.98;99856.44;4858204;29;20085;-72
2021/10/19 10:29:13;;;;;;;0.40;0.40;;;;;;;4.73;65.55;99860.19;4857802;29;20102;-73
2021/10/19 10:31:49;;;;;;;0.40;0.40;;;;;;;4.72;66.20;99861.06;4858135;29;20045;-73
2021/10/19 10:34:16;;;;;;;0.50;0.50;;;;;;;4.77;66.60;99869.56;4841429;29;20138;-73
2021/10/19 10:36:45;;;;;;;1.23;1.23;;;;;;;4.66;66.68;99858.69;4857940;29;20615;-72
2021/10/19 10:39:12;;;;;;;0.98;0.98;;;;;;;4.64;66.79;99858.75;4840767;29;20109;-73
2021/10/19 10:41:41;;;;;;;0.88;0.88;;;;;;;4.54;67.23;99856.47;4857932;29;20110;-72
2021/10/19 10:44:09;;;;;;;0.70;0.70;;;;;;;4.61;66.50;99858.00;4857598;29;20057;-75
2021/10/19 10:46:35;;;;;;;0.70;0.70;;;;;;;4.64;67.24;99855.31;4856683;29;20456;-74
2021/10/19 10:49:01;;;;;;;0.50;0.50;;;;;;;4.61;66.30;99858.81;4857412;29;20054;-72
2021/10/19 10:51:36;;;;;;;0.68;0.68;;;;;;;4.65;65.82;99850.06;4857768;29;20057;-75
2021/10/19 10:54:02;;;;;;;0.52;0.52;;;;;;;4.75;65.09;99850.63;4841830;29;20060;-74
2021/10/19 10:56:28;;;;;;;0.50;0.50;;;;;;;4.64;65.21;99848.41;4857851;29;20053;-73
2021/10/19 10:58:54;;;;;;;0.50;0.50;;;;;;;4.74;65.44;99848.97;4840910;29;20045;-74
2021/10/19 11:01:28;;;;;;;0.40;0.40;;;;;;;4.89;64.65;99853.66;4840798;29;20057;-74
2021/10/19 11:04:04;;;;;;;0.75;0.75;;;;;;;4.95;64.22;99852.59;4857119;29;20132;-72
2021/10/19 11:06:30;;;;;;;1.40;0.90;;;;;;;4.99;63.50;99854.19;4857483;29;20060;-74
2021/10/19 11:08:57;;;;;;;0.60;0.60;;;;;;;5.08;63.31;99857.31;4840524;29;20053;-73
2021/10/19 11:11:24;;;;;;;0.40;0.40;;;;;;;5.01;63.86;99853.25;4857294;29;20053;-74
2021/10/19 11:14:01;;;;;;;0.80;0.80;;;;;;;5.00;63.56;99859.34;4857322;29;20060;-73
2021/10/19 11:16:30;;;;;;;0.65;0.65;;;;;;;4.97;62.71;99859.44;4859790;29;20080;-76
2021/10/19 11:18:56;;;;;;;1.30;1.30;;;;;;;5.01;63.16;99857.56;4857275;29;20061;-75
2021/10/19 11:21:22;;;;;;;0.40;0.40;;;;;;;4.91;63.10;99854.44;4857240;29;20121;-74
2021/10/19 11:23:48;;;;;;;0.40;0.40;;;;;;;4.92;63.81;99869.06;4840702;29;20049;-75
2021/10/19 11:26:14;;;;;;;0.40;0.40;;;;;;;4.93;62.94;99863.00;4857147;29;20050;-73
2021/10/19 11:28:42;;;;;;;0.50;0.50;;;;;;;4.91;63.07;99866.53;4840982;29;20059;-74
2021/10/19 11:31:08;;;;;;;4.80;1.30;;;;;;;4.82;63.66;99870.25;4825527;29;20505;-75
2021/10/19 11:33:48;;;;;;;0.50;0.50;;;;;;;4.77;62.19;99869.56;4858005;29;20049;-75
2021/10/19 11:36:15;;;;;;;0.73;0.73;;;;;;;4.81;62.21;99865.97;4841601;29;20053;-75
2021/10/19 11:38:46;;;;;;;0.80;0.80;;;;;;;4.96;62.08;99855.16;4825403;29;20588;-75
2021/10/19 11:41:18;;;;;;;0.82;0.82;;;;;;;5.02;61.39;99865.28;4856826;29;20054;-74
2021/10/19 11:43:45;;;;;;;0.70;0.70;;;;;;;5.01;60.61;99854.97;4856915;29;20056;-73
2021/10/19 11:46:14;;;;;;;0.60;0.60;;;;;;;4.99;59.72;99854.19;4856860;29;20516;-73
2021/10/19 11:48:40;;;;;;;0.43;0.43;;;;;;;5.01;60.19;99867.91;4840563;29;20050;-75
2021/10/19 11:51:08;;;;;;;0.40;0.40;;;;;;;5.03;59.58;99867.00;4856664;29;20105;-74
2021/10/19 11:53:35;;;;;;;0.40;0.40;;;;;;;5.05;60.76;99867.78;4823355;29;20090;-74
2021/10/19 11:56:04;;;;;;;0.60;0.60;;;;;;;4.99;60.82;99870.56;4823648;29;20062;-75
2021/10/19 11:58:32;;;;;;;1.67;1.50;;;;;;;4.99;60.66;99870.56;4794531;29;20046;-74